Terminal Aerodrome Forecast
Issued by NWS Cleveland, OH

Home | Current Version | Previous Version | Graphics & Text | Print | Product List | Glossary On
Versions: 1 2 3 4 5 6 7 8 9 10 11 12 13 14 15 16
000
FTUS41 KCLE 171700
TAFCAK
TAF
KCAK 171720Z 1718/1818 31007KT 5SM BR OVC012
     FM171900 VRB03KT P6SM SCT035
     FM180000 VRB03KT P6SM SKC
     FM181000 VRB03KT 4SM BR SKC
     FM181300 30006KT P6SM SKC=

USA.gov is the U.S. government's official web portal to all federal, state and local government web resources and services.